首页
METAR-TAF:

METAR-TAF

机场 :

Burwash, 育康省, 加拿大

纬度: 61-22N, 经度: 139-02W, 海拔: 807米

当前天气观测

该预报发布于20分钟前的23:00 UTC
风速5节,风向东南,在西之间变化
温度 11°C
湿度 58%
气压 1011 hPa
能見度: 40.2公里
散云层高于5000英尺, 积雨云.
散云层高于6000英尺
多云层高于8000英尺

METAR: CYDB 032300Z 13005KT 100V270 25SM SCT050CB SCT060 BKN080 11/03 A2984 RMK CB3SC1AC2 DIST SH ALQDS SLP133 DENSITY ALT 3000FT

时间: 16:20 (23:20 UTC)

预报

该预报发布于5小时和42分钟前的17:38 UTC
预报有效从03日的 18点(UTC)到 04日的 06点(UTC)
风速7节,风向西转西北
能見度: 10公里
少量云层高于2500英尺
散云层高于4000英尺
阴天层高于6000英尺
短暂存在
从 03日的 18点(UTC)到 04日的 03点(UTC)
能見度: 10公里
小阵雨
从 04日的 0300点(UTC)
风速7节,风向西转西北
能見度: 10公里
少量云层高于2000英尺
阴天层高于4000英尺
小阵雨
短暂存在
从 04日的 03点(UTC)到 04日的 06点(UTC)
多云层高于2000英尺
阴天层高于4000英尺

TAF: CYDB 031738Z 0318/0406 29007KT P6SM FEW025 SCT040 OVC060 TEMPO 0318/0403 P6SM -SHRA FM040300 29007KT P6SM -SHRA FEW020 OVC040 TEMPO 0403/0406 BKN020 OVC040 RMK NXT FCST BY 040000Z

超过4000个机场的气象观测和天气预报(METAR&TAF报告)。

可查询的气象台以黄色和红色小点在地图上表示。

将鼠标移到小点上方,可查看气象台名称。

然后点击查看天气观测和预报。

如需切换地图:点击带黑十字的绿色按钮放大地图;点击带横线的绿色按钮缩小地图;或者点击绿色箭头查看邻近地区的地图。


METAR-TAF: